KEKM

Elkhart Municipal Airport

Elkhart, Indiana, USA
METAR KEKM 210052Z 11010G15KT 10SM FEW019 22/19 A2985 RMK AO2 LAST
Observed Flight Rules
Aug-21 @ 00:52 UTC (3 hours ago) Visual Flight Rules
Wind Visibility Clouds
110° at 10 knots
 Gusting to 15 knots
10 miles
  • Few at 1,900' AGL
Temperatures Readings
Current 22°C / 72°F
Dewpoint 19°C / 66°F
Humidity 83%
Altimeter 29.85" Hg
Pressure 1011 hPa
Elevation 237
METAR KEKM 210052Z 11010G15KT 10SM FEW019 22/19 A2985 RMK AO2 LAST
Observed Flight Rules
Aug-21 @ 00:52 UTC
(3 hours ago)
VFR
Wind Visibility
110° at 10 knots
 Gusting to 15 knots
10 miles
Clouds
  • Few at 1,900' AGL
Temperature Dewpoint
22°C / 72°F 19°C / 66°F
Humidity Altimeter Pressure
83% 29.85" Hg 1011 hPa